Howey In The Hills, Florida
Current Conditions -  °F | °C
As of 4:53 AM on Sunday 25 Jan 2015 (Local Time) from KLEE Reporting Station
Clear Clear  
Wind Chill: 41°   Ceiling: Unl
Heat Index: 45°   Visibility: 10mi
Dew Point: 36°   Wind: 7mph
Humidity: 71%   Direction: 320°NW
Pressure: 30.06"   Gusts: NA
Location:  28.72°N, 81.77°W
Report Text: KLEE 250953Z AUTO 32006KT 10SM CLR 07/02 A3006 RMK AO2 SLP180 T00720022
Loading
Personal Weather Stations






























Interactive Weather Map New forecast layout! Learn more

10-Day Weather Forecast

Advertisements
Track Severe Weather on mobile